Time;durP1;ratioP1;P1;durP2;ratioP2;P2;SDS_P1;SDS_P2;PMS_P1;PMS_P2;Temp;Humidity;BMP_temperature;BMP_pressure;BME280_temperature;BME280_humidity;BME280_pressure;Samples;Min_cycle;Max_cycle;Signal;HPM_P1;HPM_P2
2023/04/27 00:01:48;;;;;;;8.40;5.03;;;4.00;99.90;;;;;;5056940;28;20037;-88
2023/04/27 00:04:15;;;;;;;11.52;4.07;;;3.90;99.90;;;;;;5051476;28;20043;-88
2023/04/27 00:06:41;;;;;;;8.25;3.88;;;3.90;99.90;;;;;;5052196;28;20104;-88
2023/04/27 00:09:07;;;;;;;7.25;3.85;;;4.00;99.90;;;;;;5050573;28;20095;-88
2023/04/27 00:11:33;;;;;;;7.38;4.18;;;4.00;99.90;;;;;;5051549;28;20040;-88
2023/04/27 00:13:58;;;;;;;10.25;4.50;;;4.10;99.90;;;;;;5086060;28;20498;-88
2023/04/27 00:16:24;;;;;;;7.57;3.90;;;4.10;99.90;;;;;;5057801;28;20041;-88
2023/04/27 00:18:51;;;;;;;8.40;4.63;;;4.10;99.90;;;;;;5057549;28;20052;-88
2023/04/27 00:21:16;;;;;;;8.98;4.63;;;4.10;99.90;;;;;;5058943;28;20055;-89
2023/04/27 00:23:42;;;;;;;11.10;4.47;;;4.10;99.90;;;;;;5051259;28;20033;-88
2023/04/27 00:26:08;;;;;;;9.00;4.45;;;4.10;99.90;;;;;;5043715;28;20037;-88
2023/04/27 00:28:33;;;;;;;11.05;4.75;;;4.10;99.90;;;;;;5051687;28;20044;-88
2023/04/27 00:31:02;;;;;;;14.30;4.93;;;4.10;99.90;;;;;;5072672;28;20447;-88
2023/04/27 00:33:27;;;;;;;7.45;4.15;;;4.10;99.90;;;;;;5053613;28;20036;-88
2023/04/27 00:35:53;;;;;;;9.80;4.75;;;4.10;99.90;;;;;;5051321;28;20394;-88
2023/04/27 00:38:19;;;;;;;19.42;5.30;;;4.10;99.90;;;;;;5037676;28;20047;-88
2023/04/27 00:40:44;;;;;;;8.20;4.28;;;4.20;99.90;;;;;;5055943;28;20491;-88
2023/04/27 00:43:10;;;;;;;7.63;4.43;;;4.20;99.90;;;;;;5055631;28;20036;-88
2023/04/27 00:45:44;;;;;;;8.15;4.32;;;4.20;99.90;;;;;;5049958;28;20025;-88
2023/04/27 00:48:11;;;;;;;7.88;4.18;;;4.30;99.90;;;;;;5034230;28;20041;-88
2023/04/27 00:50:37;;;;;;;11.88;3.90;;;4.30;99.90;;;;;;5050842;28;20037;-88
2023/04/27 00:53:04;;;;;;;10.75;4.88;;;4.30;99.90;;;;;;5048894;28;20041;-88
2023/04/27 00:55:29;;;;;;;11.82;4.80;;;4.10;99.90;;;;;;5050374;28;20049;-88
2023/04/27 00:57:55;;;;;;;12.32;4.38;;;4.40;99.90;;;;;;5049666;28;20036;-87
2023/04/27 01:00:21;;;;;;;9.48;4.38;;;4.40;99.90;;;;;;5050483;28;20049;-88
2023/04/27 01:02:47;;;;;;;12.80;4.90;;;4.50;99.90;;;;;;5056542;28;20430;-88
2023/04/27 01:05:13;;;;;;;9.00;4.25;;;4.50;99.90;;;;;;5055984;28;20102;-88
2023/04/27 01:07:40;;;;;;;9.25;5.07;;;4.50;99.90;;;;;;5035213;28;20032;-88
2023/04/27 01:10:07;;;;;;;11.18;4.65;;;4.50;99.90;;;;;;5056107;28;20491;-88
2023/04/27 01:12:32;;;;;;;9.85;4.47;;;4.60;99.90;;;;;;5087117;28;20041;-89
2023/04/27 01:14:58;;;;;;;8.88;4.78;;;4.50;99.90;;;;;;5042562;28;20036;-88
2023/04/27 01:17:24;;;;;;;8.60;4.80;;;4.50;99.90;;;;;;5057533;28;20047;-88
2023/04/27 01:19:50;;;;;;;11.45;4.85;;;4.50;99.90;;;;;;5032696;28;20037;-88
2023/04/27 01:22:16;;;;;;;9.88;4.53;;;4.50;99.90;;;;;;5053501;28;20028;-87
2023/04/27 01:24:42;;;;;;;9.68;4.72;;;4.50;99.90;;;;;;5050446;28;20052;-88
2023/04/27 01:27:08;;;;;;;9.90;4.47;;;4.50;99.90;;;;;;5054212;28;20036;-88
2023/04/27 01:29:33;;;;;;;8.57;4.40;;;4.50;99.90;;;;;;5051537;28;20045;-88
2023/04/27 01:31:59;;;;;;;7.90;4.18;;;4.40;99.90;;;;;;5064549;28;20555;-88
2023/04/27 01:34:24;;;;;;;10.73;4.47;;;4.80;99.90;;;;;;5057007;28;20043;-88
2023/04/27 01:36:50;;;;;;;10.70;4.82;;;4.40;99.90;;;;;;5047954;28;20120;-88
2023/04/27 01:39:16;;;;;;;8.23;4.35;;;4.30;99.90;;;;;;5048815;28;20079;-88
2023/04/27 01:41:41;;;;;;;7.63;4.10;;;4.30;99.90;;;;;;5049426;28;20523;-88
2023/04/27 01:44:07;;;;;;;12.63;4.43;;;4.30;99.90;;;;;;5049805;28;20037;-88
2023/04/27 01:46:32;;;;;;;8.63;4.38;;;4.30;99.90;;;;;;5053924;28;20048;-88
2023/04/27 01:48:58;;;;;;;9.77;4.43;;;4.20;99.90;;;;;;5058964;28;20086;-88
2023/04/27 01:51:23;;;;;;;9.98;5.05;;;4.20;99.90;;;;;;5051472;28;20158;-88
2023/04/27 01:53:49;;;;;;;8.10;4.03;;;4.20;99.90;;;;;;5052366;28;20048;-88
2023/04/27 01:56:15;;;;;;;12.00;4.15;;;4.20;99.90;;;;;;5055838;28;20515;-87
2023/04/27 01:58:41;;;;;;;10.13;4.75;;;4.10;99.90;;;;;;5054709;28;20403;-88
2023/04/27 02:01:06;;;;;;;9.95;4.35;;;4.10;99.90;;;;;;5050548;28;20411;-87
2023/04/27 02:03:32;;;;;;;8.40;3.88;;;4.10;99.90;;;;;;5057256;28;20041;-87
2023/04/27 02:05:57;;;;;;;8.27;4.35;;;4.00;99.90;;;;;;5061694;28;20372;-88
2023/04/27 02:08:23;;;;;;;10.82;4.85;;;4.00;99.90;;;;;;5058843;28;20036;-88
2023/04/27 02:10:49;;;;;;;9.30;4.60;;;4.00;99.90;;;;;;5057333;28;20495;-87
2023/04/27 02:13:14;;;;;;;9.90;4.25;;;3.90;99.90;;;;;;5051188;28;20033;-88
2023/04/27 02:15:40;;;;;;;8.75;4.30;;;3.90;99.90;;;;;;5056506;28;20521;-88
2023/04/27 02:18:05;;;;;;;10.52;5.28;;;3.90;99.90;;;;;;5048277;28;20498;-88
2023/04/27 02:20:32;;;;;;;11.48;5.05;;;3.90;99.90;;;;;;5051697;28;20041;-88
2023/04/27 02:22:57;;;;;;;10.30;4.38;;;3.80;99.90;;;;;;5048651;28;20482;-88
2023/04/27 02:25:23;;;;;;;12.27;5.00;;;3.80;99.90;;;;;;5058867;28;20064;-88
2023/04/27 02:27:49;;;;;;;10.05;4.38;;;3.80;99.90;;;;;;5053430;28;20037;-88
2023/04/27 02:30:14;;;;;;;9.90;4.55;;;3.70;99.90;;;;;;5047979;28;20056;-87
2023/04/27 02:32:40;;;;;;;10.65;5.20;;;4.30;99.90;;;;;;5049158;28;20148;-88
2023/04/27 02:35:07;;;;;;;9.43;4.72;;;3.70;99.90;;;;;;5047691;28;20033;-88
2023/04/27 02:37:33;;;;;;;8.63;4.78;;;3.20;99.90;;;;;;5048032;28;20040;-88
2023/04/27 02:39:59;;;;;;;9.88;4.82;;;3.50;99.90;;;;;;5049283;28;20037;-88
2023/04/27 02:42:24;;;;;;;13.73;5.22;;;3.50;99.90;;;;;;5051247;28;20040;-88
2023/04/27 02:44:50;;;;;;;10.30;5.10;;;3.50;99.90;;;;;;5089729;28;20116;-88
2023/04/27 02:47:16;;;;;;;8.75;4.40;;;3.40;99.90;;;;;;5047926;28;20403;-88
2023/04/27 02:49:42;;;;;;;12.32;4.55;;;3.40;99.90;;;;;;5051603;28;20039;-89
2023/04/27 02:52:08;;;;;;;8.15;4.10;;;3.40;99.90;;;;;;5051252;28;20119;-88
2023/04/27 02:54:33;;;;;;;7.82;4.22;;;3.40;99.90;;;;;;5057711;28;20116;-88
2023/04/27 02:57:00;;;;;;;8.20;4.25;;;3.40;99.90;;;;;;5049611;28;20095;-89
2023/04/27 02:59:25;;;;;;;10.27;4.78;;;3.40;99.90;;;;;;5053278;28;20053;-88
2023/04/27 03:01:51;;;;;;;10.18;4.85;;;3.30;99.90;;;;;;5049133;28;20033;-88
2023/04/27 03:04:17;;;;;;;11.57;5.13;;;3.30;99.90;;;;;;5043120;28;20091;-88
2023/04/27 03:06:43;;;;;;;9.15;4.80;;;3.30;99.90;;;;;;5056253;28;20040;-88
2023/04/27 03:09:09;;;;;;;10.00;5.72;;;3.20;99.90;;;;;;5059913;28;20032;-88
2023/04/27 03:11:35;;;;;;;9.02;4.57;;;3.20;99.90;;;;;;5057916;28;20052;-88
2023/04/27 03:14:01;;;;;;;9.25;4.43;;;3.20;99.90;;;;;;5060409;28;20167;-88
2023/04/27 03:16:27;;;;;;;10.75;5.45;;;3.20;99.90;;;;;;5057345;28;20048;-88
2023/04/27 03:18:52;;;;;;;8.00;4.85;;;3.20;99.90;;;;;;5051091;28;20123;-88
2023/04/27 03:21:18;;;;;;;13.23;5.88;;;3.10;99.90;;;;;;5052697;28;20041;-88
2023/04/27 03:23:44;;;;;;;9.18;5.15;;;3.10;99.90;;;;;;5052334;28;20396;-88
2023/04/27 03:26:12;;;;;;;13.50;5.28;;;3.00;99.90;;;;;;5056185;28;20048;-88
2023/04/27 03:28:38;;;;;;;12.05;4.85;;;3.00;99.90;;;;;;5053070;28;20045;-88
2023/04/27 03:31:05;;;;;;;10.32;5.10;;;3.00;99.90;;;;;;5053836;28;20033;-89
2023/04/27 03:33:31;;;;;;;9.27;4.80;;;3.00;99.90;;;;;;5056277;28;20043;-88
2023/04/27 03:35:57;;;;;;;11.00;5.18;;;3.70;99.90;;;;;;5059017;28;20395;-89
2023/04/27 03:38:24;;;;;;;11.70;5.68;;;3.50;99.90;;;;;;5050998;28;20033;-88
2023/04/27 03:40:50;;;;;;;9.52;5.55;;;3.60;99.90;;;;;;5052593;28;20175;-88
2023/04/27 03:43:15;;;;;;;10.18;5.13;;;3.00;99.90;;;;;;5050884;28;20045;-88
2023/04/27 03:45:41;;;;;;;10.82;4.70;;;2.90;99.90;;;;;;5056594;28;20067;-88
2023/04/27 03:48:07;;;;;;;10.63;5.68;;;2.90;99.90;;;;;;5054488;28;20391;-89
2023/04/27 03:50:32;;;;;;;11.10;5.65;;;3.00;99.90;;;;;;5051947;28;20041;-88
2023/04/27 03:52:58;;;;;;;10.90;5.07;;;2.90;99.90;;;;;;5054291;28;20041;-88
2023/04/27 03:55:24;;;;;;;14.57;6.07;;;2.90;99.90;;;;;;5064444;28;20041;-88
2023/04/27 03:57:50;;;;;;;12.63;6.32;;;2.90;99.90;;;;;;5062555;28;20056;-88
2023/04/27 04:00:17;;;;;;;15.57;5.82;;;2.90;99.90;;;;;;5052829;28;20060;-90
2023/04/27 04:02:43;;;;;;;13.00;6.63;;;2.90;99.90;;;;;;5050108;28;20044;-89
2023/04/27 04:05:09;;;;;;;9.75;5.38;;;2.80;99.90;;;;;;5051277;28;20037;-88
2023/04/27 04:07:35;;;;;;;14.25;6.32;;;2.80;99.90;;;;;;5056264;28;20088;-88
2023/04/27 04:10:01;;;;;;;12.05;5.18;;;2.80;99.90;;;;;;5050300;28;20395;-89
2023/04/27 04:12:27;;;;;;;9.85;5.63;;;2.80;99.90;;;;;;5056359;28;20040;-89
2023/04/27 04:14:52;;;;;;;11.27;5.68;;;2.80;99.90;;;;;;5057523;28;20436;-89
2023/04/27 04:17:18;;;;;;;13.38;5.93;;;2.80;99.90;;;;;;5037841;28;20101;-87
2023/04/27 04:19:43;;;;;;;12.82;6.47;;;2.80;99.90;;;;;;5051242;28;20035;-89
2023/04/27 04:22:09;;;;;;;11.85;6.05;;;2.80;99.90;;;;;;5048087;28;20533;-89
2023/04/27 04:24:35;;;;;;;11.73;5.72;;;2.80;99.90;;;;;;5049701;28;20114;-89
2023/04/27 04:27:01;;;;;;;12.13;5.75;;;2.80;99.90;;;;;;5051471;28;20033;-89
2023/04/27 04:29:27;;;;;;;10.73;5.68;;;2.80;99.90;;;;;;5051091;28;20045;-89
2023/04/27 04:31:54;;;;;;;10.75;5.97;;;2.80;99.90;;;;;;5051129;28;20123;-89
2023/04/27 04:34:20;;;;;;;12.02;5.95;;;2.80;99.90;;;;;;5057374;28;20091;-88
2023/04/27 04:36:46;;;;;;;11.68;5.85;;;2.80;99.90;;;;;;5060251;28;20373;-88
2023/04/27 04:39:12;;;;;;;12.23;6.82;;;2.80;99.90;;;;;;5056551;28;20045;-88
2023/04/27 04:41:38;;;;;;;12.18;6.47;;;2.80;99.90;;;;;;5051600;28;20041;-89
2023/04/27 04:44:04;;;;;;;13.90;6.45;;;2.80;99.90;;;;;;5056577;28;20041;-88
2023/04/27 04:46:30;;;;;;;10.23;6.22;;;2.80;99.90;;;;;;5056073;28;20558;-88
2023/04/27 04:48:55;;;;;;;11.73;6.70;;;2.80;99.90;;;;;;5050860;28;20041;-89
2023/04/27 04:51:21;;;;;;;13.55;6.55;;;2.80;99.90;;;;;;5060871;28;20041;-89
2023/04/27 04:53:46;;;;;;;11.80;5.85;;;2.90;99.90;;;;;;5059468;28;20032;-89
2023/04/27 04:56:13;;;;;;;12.35;5.68;;;2.90;99.90;;;;;;5055097;28;20564;-88
2023/04/27 04:58:39;;;;;;;13.02;6.43;;;3.00;99.90;;;;;;5053861;28;20080;-88
2023/04/27 05:01:05;;;;;;;12.32;6.07;;;3.00;99.90;;;;;;5060277;28;20079;-88
2023/04/27 05:03:31;;;;;;;11.90;5.88;;;3.00;99.90;;;;;;5046688;28;20037;-89
2023/04/27 05:05:57;;;;;;;13.10;6.60;;;3.00;99.90;;;;;;5055342;28;20399;-89
2023/04/27 05:08:22;;;;;;;11.98;6.55;;;3.10;99.90;;;;;;5050874;28;20033;-89
2023/04/27 05:10:49;;;;;;;8.88;5.10;;;3.10;99.90;;;;;;5044811;28;20107;-88
2023/04/27 05:13:15;;;;;;;14.10;6.35;;;3.10;99.90;;;;;;5053627;28;20044;-88
2023/04/27 05:15:41;;;;;;;12.57;5.68;;;3.10;99.90;;;;;;5055063;28;20040;-89
2023/04/27 05:18:06;;;;;;;12.40;6.25;;;3.00;99.90;;;;;;5050785;28;20060;-88
2023/04/27 05:20:36;;;;;;;13.77;7.20;;;3.10;99.90;;;;;;5050693;28;20047;-89
2023/04/27 05:23:02;;;;;;;12.07;6.53;;;3.10;99.90;;;;;;5050976;28;20041;-88
2023/04/27 05:25:32;;;;;;;11.95;5.72;;;3.20;99.90;;;;;;5065890;28;20595;-88
2023/04/27 05:27:58;;;;;;;11.40;6.18;;;3.20;99.90;;;;;;5061907;28;20120;-89
2023/04/27 05:30:23;;;;;;;11.95;6.45;;;3.20;99.90;;;;;;5049280;28;20041;-89
2023/04/27 05:32:49;;;;;;;11.10;5.97;;;3.30;99.90;;;;;;5032344;28;20534;-89
2023/04/27 05:35:15;;;;;;;12.02;5.80;;;3.30;99.90;;;;;;5054926;28;20044;-88
2023/04/27 05:37:41;;;;;;;11.82;5.78;;;3.40;99.90;;;;;;5053062;28;20079;-88
2023/04/27 05:40:08;;;;;;;11.48;4.93;;;3.40;99.90;;;;;;5048584;28;20503;-88
2023/04/27 05:42:35;;;;;;;11.00;5.97;;;3.50;99.90;;;;;;5054016;28;20048;-88
2023/04/27 05:45:02;;;;;;;12.15;5.45;;;3.50;99.90;;;;;;5055195;28;20660;-88
2023/04/27 05:47:28;;;;;;;10.68;5.28;;;3.60;99.90;;;;;;5063903;28;20036;-88
2023/04/27 05:49:53;;;;;;;12.02;5.88;;;3.60;99.90;;;;;;5053245;28;20071;-88
2023/04/27 05:52:19;;;;;;;9.93;5.38;;;3.70;99.90;;;;;;5051005;28;20052;-88
2023/04/27 05:54:48;;;;;;;10.15;5.78;;;3.70;99.90;;;;;;5050135;28;20045;-89
2023/04/27 05:57:14;;;;;;;10.48;5.40;;;3.70;99.90;;;;;;5066456;28;20098;-88
2023/04/27 05:59:41;;;;;;;11.52;5.03;;;3.80;99.90;;;;;;5088366;28;20140;-88
2023/04/27 06:02:07;;;;;;;10.60;5.25;;;3.80;99.90;;;;;;5049456;28;20091;-88
2023/04/27 06:04:33;;;;;;;12.52;5.68;;;3.80;99.90;;;;;;5053953;28;20037;-87
2023/04/27 06:06:59;;;;;;;9.95;4.80;;;3.90;99.90;;;;;;5055795;28;20403;-88
2023/04/27 06:09:25;;;;;;;9.85;4.75;;;3.90;99.90;;;;;;5053929;28;20299;-88
2023/04/27 06:11:50;;;;;;;10.05;4.47;;;4.00;99.90;;;;;;5048111;28;20047;-88
2023/04/27 06:14:16;;;;;;;9.38;4.60;;;4.00;99.90;;;;;;5048341;28;20462;-88
2023/04/27 06:16:42;;;;;;;9.57;4.50;;;4.10;99.90;;;;;;5048223;28;20048;-88
2023/04/27 06:19:08;;;;;;;10.63;4.68;;;4.10;99.90;;;;;;5049868;28;20115;-88
2023/04/27 06:21:34;;;;;;;8.95;4.18;;;4.10;99.90;;;;;;5048288;28;20037;-87
2023/04/27 06:24:00;;;;;;;10.57;4.65;;;4.20;99.90;;;;;;5051575;28;20071;-88
2023/04/27 06:26:27;;;;;;;8.50;4.45;;;4.20;99.90;;;;;;5058305;28;20033;-87
2023/04/27 06:28:53;;;;;;;10.93;4.15;;;4.30;99.90;;;;;;5055068;28;20037;-88
2023/04/27 06:31:19;;;;;;;9.00;3.83;;;4.40;99.90;;;;;;5059086;28;20143;-88
2023/04/27 06:33:45;;;;;;;8.98;4.07;;;4.50;99.90;;;;;;5088813;28;20551;-88
2023/04/27 06:36:10;;;;;;;8.55;4.10;;;4.60;99.90;;;;;;5049483;28;20036;-87
2023/04/27 06:38:36;;;;;;;6.25;3.17;;;4.60;99.90;;;;;;5049308;28;20036;-88
2023/04/27 06:41:02;;;;;;;9.88;3.80;;;4.70;99.90;;;;;;5051311;28;20041;-89
2023/04/27 06:43:28;;;;;;;10.00;3.58;;;4.80;99.90;;;;;;5056969;28;20060;-88
2023/04/27 06:45:53;;;;;;;10.20;3.58;;;4.90;99.90;;;;;;5059294;28;20037;-88
2023/04/27 06:48:19;;;;;;;6.30;3.25;;;5.00;99.90;;;;;;5059254;28;20051;-88
2023/04/27 06:50:46;;;;;;;8.60;3.97;;;5.10;99.90;;;;;;5059313;28;20048;-87
2023/04/27 06:53:12;;;;;;;6.40;2.97;;;5.20;99.90;;;;;;5055648;28;20052;-88
2023/04/27 06:55:38;;;;;;;8.15;3.80;;;5.30;99.90;;;;;;5052223;28;20037;-88
2023/04/27 06:58:04;;;;;;;9.75;3.70;;;5.40;99.90;;;;;;5058086;28;20044;-88
2023/04/27 07:00:30;;;;;;;7.82;3.00;;;5.50;99.90;;;;;;5058340;28;20052;-87
2023/04/27 07:02:56;;;;;;;8.95;3.08;;;5.60;99.90;;;;;;5065085;28;20037;-88
2023/04/27 07:05:22;;;;;;;7.10;3.08;;;5.70;99.90;;;;;;5057033;28;20032;-88
2023/04/27 07:07:47;;;;;;;8.27;2.65;;;5.70;99.90;;;;;;5051520;28;20125;-88
2023/04/27 07:10:13;;;;;;;7.35;2.75;;;5.80;99.90;;;;;;5050947;28;20048;-87
2023/04/27 07:12:39;;;;;;;8.75;2.78;;;5.90;99.90;;;;;;5052510;28;20356;-88
2023/04/27 07:15:06;;;;;;;4.93;2.50;;;5.90;99.90;;;;;;5052863;28;20099;-88
2023/04/27 07:17:32;;;;;;;6.40;2.45;;;6.00;99.90;;;;;;5045432;28;20437;-88
2023/04/27 07:19:58;;;;;;;5.55;2.47;;;6.10;99.90;;;;;;5054916;28;20476;-88
2023/04/27 07:22:23;;;;;;;7.22;2.70;;;6.20;99.90;;;;;;5052473;28;20045;-88
2023/04/27 07:24:49;;;;;;;5.32;2.25;;;6.30;99.90;;;;;;5052421;28;20041;-88
2023/04/27 07:27:15;;;;;;;6.43;2.05;;;6.40;99.90;;;;;;5060671;28;20040;-87
2023/04/27 07:29:41;;;;;;;5.72;1.98;;;6.50;99.90;;;;;;5056682;28;20037;-88
2023/04/27 07:32:07;;;;;;;6.07;2.50;;;6.60;99.90;;;;;;5057542;28;20045;-88
2023/04/27 07:34:33;;;;;;;6.53;2.40;;;6.70;99.90;;;;;;5055994;28;20041;-89
2023/04/27 07:37:00;;;;;;;5.75;2.22;;;6.70;99.90;;;;;;5061347;28;20412;-88
2023/04/27 07:39:26;;;;;;;7.95;2.38;;;6.80;99.90;;;;;;5052471;28;20065;-87
2023/04/27 07:41:52;;;;;;;5.07;1.90;;;6.90;99.90;;;;;;5055258;28;20041;-88
2023/04/27 07:44:18;;;;;;;6.65;2.35;;;7.00;99.90;;;;;;5052039;28;20475;-87
2023/04/27 07:46:47;;;;;;;6.63;2.33;;;7.00;99.90;;;;;;5059074;28;20049;-88
2023/04/27 07:49:14;;;;;;;5.85;2.47;;;7.10;99.90;;;;;;5052868;28;20052;-89
2023/04/27 07:51:39;;;;;;;8.10;1.92;;;7.20;99.90;;;;;;5054734;28;20499;-87
2023/04/27 07:54:05;;;;;;;6.68;2.25;;;7.30;99.90;;;;;;5054204;28;20086;-88
2023/04/27 07:56:31;;;;;;;4.95;2.33;;;7.40;99.90;;;;;;5051921;28;20036;-88
2023/04/27 07:58:57;;;;;;;4.20;2.25;;;7.50;99.90;;;;;;5059191;28;20128;-88
2023/04/27 08:01:23;;;;;;;6.32;1.90;;;7.50;99.90;;;;;;5052029;28;20053;-88
2023/04/27 08:03:49;;;;;;;5.38;1.70;;;7.70;99.90;;;;;;5050312;28;20044;-88
2023/04/27 08:06:14;;;;;;;5.20;1.95;;;8.10;99.90;;;;;;5064569;28;20033;-88
2023/04/27 08:08:40;;;;;;;4.45;1.85;;;7.90;99.90;;;;;;5051605;28;20051;-87
2023/04/27 08:11:09;;;;;;;4.18;2.20;;;8.00;99.90;;;;;;5052032;28;20068;-88
2023/04/27 08:13:35;;;;;;;5.40;1.73;;;8.10;99.90;;;;;;5045464;28;20086;-88
2023/04/27 08:16:00;;;;;;;5.28;2.35;;;8.20;99.90;;;;;;5055720;28;20032;-88
2023/04/27 08:18:26;;;;;;;5.97;2.00;;;8.20;99.90;;;;;;5058418;28;20600;-88
2023/04/27 08:20:52;;;;;;;6.63;2.35;;;8.30;99.90;;;;;;5057422;28;20041;-88
2023/04/27 08:23:18;;;;;;;4.95;2.20;;;8.90;99.90;;;;;;5060851;28;20126;-88
2023/04/27 08:25:43;;;;;;;6.32;2.05;;;8.60;99.90;;;;;;5056868;28;20079;-89
2023/04/27 08:28:09;;;;;;;4.32;2.03;;;8.70;99.90;;;;;;5051372;28;20079;-88
2023/04/27 08:30:35;;;;;;;6.68;2.30;;;8.80;99.90;;;;;;5048167;28;20048;-88
2023/04/27 08:33:00;;;;;;;4.88;1.88;;;9.00;99.90;;;;;;5059164;28;20059;-88
2023/04/27 08:35:26;;;;;;;7.40;2.33;;;9.00;99.90;;;;;;5056487;28;20033;-88
2023/04/27 08:37:53;;;;;;;10.43;2.63;;;9.10;99.90;;;;;;5055929;28;20047;-87
2023/04/27 08:40:19;;;;;;;5.18;2.22;;;9.30;99.90;;;;;;5058628;28;20072;-88
2023/04/27 08:42:58;;;;;;;6.53;2.50;;;9.40;99.90;;;;;;5057026;28;20049;-88
2023/04/27 08:45:26;;;;;;;6.28;2.75;;;9.50;99.90;;;;;;5049468;28;20045;-87
2023/04/27 08:47:52;;;;;;;6.47;2.20;;;9.60;99.90;;;;;;5054238;28;20037;-88
2023/04/27 08:50:18;;;;;;;4.45;2.10;;;9.60;99.90;;;;;;5056541;28;20549;-88
2023/04/27 08:52:47;;;;;;;6.35;2.70;;;9.60;99.90;;;;;;5064457;28;20131;-88
2023/04/27 08:55:13;;;;;;;5.47;2.30;;;9.70;99.90;;;;;;5053637;28;20491;-88
2023/04/27 08:57:39;;;;;;;4.55;2.05;;;9.80;99.90;;;;;;5049239;28;20052;-88
2023/04/27 09:00:12;;;;;;;4.75;2.67;;;10.00;99.90;;;;;;5050733;28;20045;-87
2023/04/27 09:02:45;;;;;;;3.85;2.17;;;10.10;99.90;;;;;;5054430;28;20472;-87
2023/04/27 09:05:21;;;;;;;6.55;3.10;;;10.20;99.90;;;;;;5050598;28;20087;-87
2023/04/27 09:08:06;;;;;;;5.55;2.80;;;10.30;99.90;;;;;;5050147;28;20427;-88
2023/04/27 09:10:46;;;;;;;6.50;2.67;;;10.40;99.90;;;;;;5057610;28;20037;-88
2023/04/27 09:13:12;;;;;;;4.55;2.28;;;10.60;99.90;;;;;;5050487;28;20037;-88
2023/04/27 09:15:48;;;;;;;6.18;2.40;;;11.00;99.90;;;;;;5055849;28;20167;-87
2023/04/27 09:18:21;;;;;;;6.43;2.60;;;10.80;99.90;;;;;;5056577;28;20033;-88
2023/04/27 09:20:51;;;;;;;6.30;2.42;;;11.00;99.90;;;;;;5060888;28;20043;-88
2023/04/27 09:23:30;;;;;;;5.07;2.53;;;11.00;99.90;;;;;;5085510;28;20483;-87
2023/04/27 09:25:57;;;;;;;6.88;3.28;;;11.10;99.90;;;;;;5053116;28;20426;-88
2023/04/27 09:28:26;;;;;;;7.70;3.72;;;11.10;99.90;;;;;;5055171;28;20037;-88
2023/04/27 09:30:57;;;;;;;7.05;3.25;;;11.10;99.90;;;;;;5048490;28;20041;-88
2023/04/27 09:33:26;;;;;;;6.50;3.17;;;11.00;99.90;;;;;;5053534;28;20037;-87
2023/04/27 09:35:53;;;;;;;6.22;3.08;;;11.00;99.90;;;;;;5048973;28;20041;-87
2023/04/27 09:38:20;;;;;;;6.50;3.45;;;11.00;99.90;;;;;;5049160;28;20041;-88
2023/04/27 09:40:47;;;;;;;6.55;3.10;;;11.30;99.90;;;;;;5054774;28;20041;-88
2023/04/27 09:43:13;;;;;;;10.40;2.80;;;11.10;99.90;;;;;;5055568;28;20051;-87
2023/04/27 09:45:39;;;;;;;6.38;3.00;;;11.30;99.90;;;;;;5052284;28;20103;-88
2023/04/27 09:48:06;;;;;;;7.00;2.83;;;11.10;99.90;;;;;;5051289;28;20542;-88
2023/04/27 09:50:36;;;;;;;5.70;3.05;;;11.10;99.90;;;;;;5031575;28;20037;-88
2023/04/27 09:53:04;;;;;;;5.25;2.83;;;11.10;99.90;;;;;;5051468;28;20395;-88
2023/04/27 09:55:35;;;;;;;7.82;3.67;;;11.10;99.90;;;;;;5050442;28;20045;-88
2023/04/27 09:58:31;;;;;;;8.63;3.78;;;11.00;99.90;;;;;;5049755;28;20081;-88
2023/04/27 10:01:19;;;;;;;8.85;3.60;;;10.90;99.90;;;;;;5087250;28;20056;-88
2023/04/27 10:04:16;;;;;;;7.45;3.38;;;10.80;99.90;;;;;;5033779;28;20040;-88
2023/04/27 10:06:53;;;;;;;11.38;3.35;;;10.90;99.90;;;;;;5051438;28;20098;-88
2023/04/27 10:09:22;;;;;;;7.95;3.15;;;11.20;99.90;;;;;;5051316;28;20044;-88
2023/04/27 10:11:49;;;;;;;7.03;3.10;;;11.50;99.90;;;;;;5050069;28;20082;-88
2023/04/27 10:14:20;;;;;;;8.27;4.35;;;12.00;99.90;;;;;;5047966;28;20319;-88
2023/04/27 10:16:56;;;;;;;5.60;3.00;;;11.80;99.90;;;;;;5057097;28;20037;-88
2023/04/27 10:19:23;;;;;;;9.05;3.75;;;12.00;99.90;;;;;;5068635;28;20088;-89
2023/04/27 10:22:02;;;;;;;9.88;3.80;;;12.30;99.90;;;;;;5060649;28;20483;-88
2023/04/27 10:24:48;;;;;;;6.90;3.90;;;12.50;99.00;;;;;;5060182;28;20115;-88
2023/04/27 10:27:21;;;;;;;8.75;3.70;;;12.50;99.70;;;;;;5041716;28;20094;-88
2023/04/27 10:29:48;;;;;;;8.05;3.80;;;12.40;99.90;;;;;;5052566;28;20098;-88
2023/04/27 10:32:23;;;;;;;6.10;3.80;;;12.40;99.90;;;;;;5056049;28;20047;-88
2023/04/27 10:34:50;;;;;;;7.60;3.92;;;12.50;99.90;;;;;;5053282;28;20112;-88
2023/04/27 10:37:19;;;;;;;6.78;3.53;;;12.50;99.90;;;;;;5059117;28;20533;-88
2023/04/27 10:39:46;;;;;;;6.38;3.72;;;12.60;99.90;;;;;;5057481;28;20036;-88
2023/04/27 10:42:11;;;;;;;9.02;4.18;;;12.70;99.90;;;;;;5056942;28;20139;-88
2023/04/27 10:44:37;;;;;;;6.95;3.38;;;12.80;97.60;;;;;;5053072;28;20063;-88
2023/04/27 10:47:14;;;;;;;5.97;3.50;;;12.80;97.40;;;;;;5052988;28;20043;-88
2023/04/27 10:49:40;;;;;;;7.90;3.55;;;12.90;97.40;;;;;;5052635;28;20040;-88
2023/04/27 10:52:06;;;;;;;5.35;3.35;;;12.90;97.30;;;;;;5052209;28;20059;-85
2023/04/27 10:54:32;;;;;;;8.00;3.97;;;13.00;98.20;;;;;;5063772;28;20029;-85
2023/04/27 10:57:08;;;;;;;7.85;3.90;;;13.00;98.00;;;;;;5060265;28;20063;-85
2023/04/27 10:59:46;;;;;;;7.15;3.53;;;13.00;98.20;;;;;;5052558;28;20041;-85
2023/04/27 11:02:11;;;;;;;6.60;3.30;;;12.90;98.00;;;;;;5053442;28;20040;-86
2023/04/27 11:04:41;;;;;;;9.68;3.70;;;12.80;98.10;;;;;;5058367;28;20403;-88
2023/04/27 11:07:07;;;;;;;5.45;3.58;;;12.60;98.80;;;;;;5056132;28;20124;-85
2023/04/27 11:09:37;;;;;;;7.70;4.05;;;12.50;98.90;;;;;;5058099;28;20068;-88
2023/04/27 11:12:06;;;;;;;8.32;4.65;;;12.40;99.00;;;;;;5060576;28;20086;-87
2023/04/27 11:14:35;;;;;;;7.55;3.45;;;12.30;99.90;;;;;;5062205;28;20037;-86
2023/04/27 11:17:01;;;;;;;7.00;3.63;;;12.20;99.90;;;;;;5053884;28;20479;-86
2023/04/27 11:19:29;;;;;;;12.00;3.60;;;12.10;99.90;;;;;;5055043;28;20047;-85
2023/04/27 11:22:05;;;;;;;6.95;3.53;;;12.10;99.50;;;;;;5056883;28;20037;-85
2023/04/27 11:24:32;;;;;;;9.75;3.88;;;12.00;99.60;;;;;;5053911;28;20110;-86
2023/04/27 11:26:57;;;;;;;7.47;3.50;;;12.00;99.00;;;;;;5050362;28;20033;-86
2023/04/27 11:29:23;;;;;;;5.90;3.38;;;11.90;99.40;;;;;;5068146;28;20098;-87
2023/04/27 11:31:50;;;;;;;8.88;3.85;;;11.90;99.90;;;;;;5052415;28;20539;-87
2023/04/27 11:34:18;;;;;;;7.18;3.90;;;11.80;99.90;;;;;;5055449;28;20086;-86
2023/04/27 11:36:43;;;;;;;9.98;3.90;;;11.80;99.90;;;;;;5051261;28;20095;-86
2023/04/27 11:39:18;;;;;;;7.38;4.10;;;11.80;99.90;;;;;;5052357;28;20132;-86
2023/04/27 11:41:45;;;;;;;7.38;3.40;;;11.80;99.90;;;;;;5051470;28;20040;-86
2023/04/27 11:44:11;;;;;;;6.28;3.88;;;11.90;99.90;;;;;;5051048;28;20049;-86
2023/04/27 11:46:38;;;;;;;8.65;4.32;;;12.00;99.90;;;;;;5041559;28;20036;-86
2023/04/27 11:49:05;;;;;;;9.80;4.43;;;12.00;99.90;;;;;;5052736;28;20068;-86
2023/04/27 11:51:32;;;;;;;7.47;4.38;;;12.10;99.90;;;;;;5055616;28;20539;-86
2023/04/27 11:54:02;;;;;;;8.27;3.97;;;12.20;99.90;;;;;;5059674;28;20364;-86
2023/04/27 11:56:35;;;;;;;8.32;3.95;;;12.20;99.30;;;;;;5054799;28;20052;-86
2023/04/27 11:59:01;;;;;;;7.93;3.85;;;12.30;99.90;;;;;;5054324;28;20060;-86
2023/04/27 12:01:27;;;;;;;10.27;4.35;;;12.50;99.90;;;;;;5052388;28;20511;-86
2023/04/27 12:03:52;;;;;;;10.73;3.83;;;12.80;99.60;;;;;;5051791;28;20040;-86
2023/04/27 12:06:27;;;;;;;6.30;3.85;;;12.80;99.50;;;;;;5051831;28;20045;-86
2023/04/27 12:08:56;;;;;;;8.70;4.32;;;12.80;98.40;;;;;;5053769;28;20045;-87
2023/04/27 12:11:25;;;;;;;6.82;4.22;;;12.80;99.90;;;;;;5058835;28;20487;-87
2023/04/27 12:13:51;;;;;;;7.10;3.47;;;12.80;99.70;;;;;;5058247;28;20068;-86
2023/04/27 12:16:17;;;;;;;7.63;3.90;;;12.80;99.90;;;;;;5060175;28;20079;-86
2023/04/27 12:18:42;;;;;;;9.75;4.15;;;12.70;99.20;;;;;;5055586;28;20040;-87
2023/04/27 12:21:09;;;;;;;8.80;3.83;;;12.60;99.90;;;;;;5051604;28;20086;-86
2023/04/27 12:23:35;;;;;;;6.53;4.00;;;12.60;99.90;;;;;;5058397;28;20036;-86
2023/04/27 12:26:01;;;;;;;8.60;4.28;;;12.50;99.90;;;;;;5051796;28;20116;-87
2023/04/27 12:28:27;;;;;;;6.57;3.90;;;12.40;99.90;;;;;;5058504;28;20041;-86
2023/04/27 12:30:53;;;;;;;9.20;3.88;;;12.30;99.70;;;;;;5060449;28;20506;-86
2023/04/27 12:33:19;;;;;;;8.55;4.00;;;12.30;99.60;;;;;;5050161;28;20037;-86
2023/04/27 12:35:45;;;;;;;8.07;4.40;;;12.20;99.70;;;;;;5052322;28;20044;-87
2023/04/27 12:38:10;;;;;;;7.03;4.15;;;12.20;99.60;;;;;;5051006;28;20029;-87
2023/04/27 12:40:36;;;;;;;9.15;4.03;;;12.20;99.90;;;;;;5050153;28;20045;-87
2023/04/27 12:43:02;;;;;;;9.25;4.32;;;12.20;99.90;;;;;;5078197;28;20073;-87
2023/04/27 12:45:27;;;;;;;6.57;3.85;;;12.20;99.90;;;;;;5083518;28;20479;-86
2023/04/27 12:47:53;;;;;;;8.35;4.13;;;12.10;99.90;;;;;;5060249;28;20106;-86
2023/04/27 12:50:19;;;;;;;8.77;4.30;;;12.10;99.90;;;;;;5050323;28;20041;-86